sensor_id;sensor_type;location;lat;lon;timestamp;P1;durP1;ratioP1;P2;durP2;ratioP2
74459;SDS011;62902;48.854;9.292;2022-12-18T00:02:12;33.33;;;14.25;;
74459;SDS011;62902;48.854;9.292;2022-12-18T00:04:38;37.28;;;14.45;;
74459;SDS011;62902;48.854;9.292;2022-12-18T00:07:05;32.08;;;13.73;;
74459;SDS011;62902;48.854;9.292;2022-12-18T00:09:31;37.40;;;13.93;;
74459;SDS011;62902;48.854;9.292;2022-12-18T00:12:06;32.75;;;12.98;;
74459;SDS011;62902;48.854;9.292;2022-12-18T00:17:10;27.50;;;10.13;;
74459;SDS011;62902;48.854;9.292;2022-12-18T00:19:37;29.10;;;10.10;;
74459;SDS011;62902;48.854;9.292;2022-12-18T00:22:03;26.45;;;9.50;;
74459;SDS011;62902;48.854;9.292;2022-12-18T00:24:30;26.35;;;11.80;;
74459;SDS011;62902;48.854;9.292;2022-12-18T00:26:56;28.17;;;12.82;;
74459;SDS011;62902;48.854;9.292;2022-12-18T00:29:23;28.50;;;12.27;;
74459;SDS011;62902;48.854;9.292;2022-12-18T00:31:49;38.90;;;14.10;;
74459;SDS011;62902;48.854;9.292;2022-12-18T00:34:16;29.85;;;11.98;;
74459;SDS011;62902;48.854;9.292;2022-12-18T00:36:42;32.10;;;11.18;;
74459;SDS011;62902;48.854;9.292;2022-12-18T00:39:10;30.88;;;12.43;;
74459;SDS011;62902;48.854;9.292;2022-12-18T00:41:38;26.20;;;11.68;;
74459;SDS011;62902;48.854;9.292;2022-12-18T00:44:24;22.00;;;9.00;;
74459;SDS011;62902;48.854;9.292;2022-12-18T00:46:50;32.92;;;12.38;;
74459;SDS011;62902;48.854;9.292;2022-12-18T00:49:18;32.67;;;12.55;;
74459;SDS011;62902;48.854;9.292;2022-12-18T00:51:45;32.50;;;12.73;;
74459;SDS011;62902;48.854;9.292;2022-12-18T00:54:12;38.65;;;12.88;;
74459;SDS011;62902;48.854;9.292;2022-12-18T00:56:38;33.15;;;14.65;;
74459;SDS011;62902;48.854;9.292;2022-12-18T00:59:14;39.60;;;10.30;;
74459;SDS011;62902;48.854;9.292;2022-12-18T01:01:42;31.08;;;11.25;;
74459;SDS011;62902;48.854;9.292;2022-12-18T01:04:09;22.55;;;10.65;;
74459;SDS011;62902;48.854;9.292;2022-12-18T01:06:36;22.60;;;11.43;;
74459;SDS011;62902;48.854;9.292;2022-12-18T01:09:02;34.03;;;11.85;;
74459;SDS011;62902;48.854;9.292;2022-12-18T01:11:29;24.50;;;10.15;;
74459;SDS011;62902;48.854;9.292;2022-12-18T01:13:56;29.25;;;10.15;;
74459;SDS011;62902;48.854;9.292;2022-12-18T01:16:23;29.83;;;11.00;;
74459;SDS011;62902;48.854;9.292;2022-12-18T01:18:53;25.33;;;10.30;;
74459;SDS011;62902;48.854;9.292;2022-12-18T01:21:21;14.68;;;7.15;;
74459;SDS011;62902;48.854;9.292;2022-12-18T01:23:50;25.65;;;9.82;;
74459;SDS011;62902;48.854;9.292;2022-12-18T01:26:18;27.55;;;8.27;;
74459;SDS011;62902;48.854;9.292;2022-12-18T01:28:45;18.00;;;7.82;;
74459;SDS011;62902;48.854;9.292;2022-12-18T01:33:47;21.52;;;10.13;;
74459;SDS011;62902;48.854;9.292;2022-12-18T01:36:22;27.45;;;11.65;;
74459;SDS011;62902;48.854;9.292;2022-12-18T01:38:48;18.70;;;9.27;;
74459;SDS011;62902;48.854;9.292;2022-12-18T01:41:16;28.75;;;10.38;;
74459;SDS011;62902;48.854;9.292;2022-12-18T01:43:46;19.77;;;7.65;;
74459;SDS011;62902;48.854;9.292;2022-12-18T01:46:15;31.08;;;10.23;;
74459;SDS011;62902;48.854;9.292;2022-12-18T01:48:43;24.98;;;11.55;;
74459;SDS011;62902;48.854;9.292;2022-12-18T01:51:11;31.63;;;9.50;;
74459;SDS011;62902;48.854;9.292;2022-12-18T01:53:39;17.75;;;8.15;;
74459;SDS011;62902;48.854;9.292;2022-12-18T01:56:08;26.48;;;10.40;;
74459;SDS011;62902;48.854;9.292;2022-12-18T01:58:38;20.73;;;10.93;;
74459;SDS011;62902;48.854;9.292;2022-12-18T02:01:12;36.75;;;11.57;;
74459;SDS011;62902;48.854;9.292;2022-12-18T02:03:41;31.48;;;13.15;;
74459;SDS011;62902;48.854;9.292;2022-12-18T02:06:23;30.27;;;11.27;;
74459;SDS011;62902;48.854;9.292;2022-12-18T02:11:47;28.90;;;11.23;;
74459;SDS011;62902;48.854;9.292;2022-12-18T02:14:23;29.80;;;11.35;;
74459;SDS011;62902;48.854;9.292;2022-12-18T02:19:39;23.85;;;8.73;;
74459;SDS011;62902;48.854;9.292;2022-12-18T02:27:24;22.80;;;8.38;;
74459;SDS011;62902;48.854;9.292;2022-12-18T02:29:51;20.63;;;9.60;;
74459;SDS011;62902;48.854;9.292;2022-12-18T02:32:27;16.10;;;7.05;;
74459;SDS011;62902;48.854;9.292;2022-12-18T02:34:56;21.08;;;9.50;;
74459;SDS011;62902;48.854;9.292;2022-12-18T02:37:26;19.85;;;8.73;;
74459;SDS011;62902;48.854;9.292;2022-12-18T02:39:54;16.08;;;8.05;;
74459;SDS011;62902;48.854;9.292;2022-12-18T02:42:23;21.05;;;9.35;;
74459;SDS011;62902;48.854;9.292;2022-12-18T02:44:51;19.45;;;8.75;;
74459;SDS011;62902;48.854;9.292;2022-12-18T02:47:23;16.67;;;7.68;;
74459;SDS011;62902;48.854;9.292;2022-12-18T02:55:26;14.02;;;7.55;;
74459;SDS011;62902;48.854;9.292;2022-12-18T03:01:03;15.80;;;7.97;;
74459;SDS011;62902;48.854;9.292;2022-12-18T03:03:47;17.95;;;8.02;;
74459;SDS011;62902;48.854;9.292;2022-12-18T03:06:28;29.10;;;8.25;;
74459;SDS011;62902;48.854;9.292;2022-12-18T03:08:58;18.83;;;7.32;;
74459;SDS011;62902;48.854;9.292;2022-12-18T03:11:30;25.80;;;9.32;;
74459;SDS011;62902;48.854;9.292;2022-12-18T03:14:18;24.42;;;7.88;;
74459;SDS011;62902;48.854;9.292;2022-12-18T03:16:49;27.35;;;10.40;;
74459;SDS011;62902;48.854;9.292;2022-12-18T03:19:18;25.27;;;8.40;;
74459;SDS011;62902;48.854;9.292;2022-12-18T03:21:49;16.15;;;6.20;;
74459;SDS011;62902;48.854;9.292;2022-12-18T03:24:18;34.45;;;10.77;;
74459;SDS011;62902;48.854;9.292;2022-12-18T03:26:47;31.20;;;9.45;;
74459;SDS011;62902;48.854;9.292;2022-12-18T03:32:11;19.75;;;9.27;;
74459;SDS011;62902;48.854;9.292;2022-12-18T03:34:41;15.93;;;8.02;;
74459;SDS011;62902;48.854;9.292;2022-12-18T03:37:11;18.48;;;6.78;;
74459;SDS011;62902;48.854;9.292;2022-12-18T03:39:39;24.58;;;10.02;;
74459;SDS011;62902;48.854;9.292;2022-12-18T03:44:51;13.68;;;6.50;;
74459;SDS011;62902;48.854;9.292;2022-12-18T03:51:08;18.05;;;7.03;;
74459;SDS011;62902;48.854;9.292;2022-12-18T03:53:35;16.23;;;8.30;;
74459;SDS011;62902;48.854;9.292;2022-12-18T03:56:06;23.13;;;8.48;;
74459;SDS011;62902;48.854;9.292;2022-12-18T03:58:38;22.83;;;6.93;;
74459;SDS011;62902;48.854;9.292;2022-12-18T04:01:20;24.33;;;10.20;;
74459;SDS011;62902;48.854;9.292;2022-12-18T04:06:17;22.17;;;8.77;;
74459;SDS011;62902;48.854;9.292;2022-12-18T04:08:44;22.23;;;9.05;;
74459;SDS011;62902;48.854;9.292;2022-12-18T04:11:15;25.38;;;8.45;;
74459;SDS011;62902;48.854;9.292;2022-12-18T04:13:44;20.10;;;9.18;;
74459;SDS011;62902;48.854;9.292;2022-12-18T04:16:18;26.85;;;7.53;;
74459;SDS011;62902;48.854;9.292;2022-12-18T04:18:47;20.70;;;8.85;;
74459;SDS011;62902;48.854;9.292;2022-12-18T04:21:14;25.65;;;9.43;;
74459;SDS011;62902;48.854;9.292;2022-12-18T04:23:41;15.98;;;8.23;;
74459;SDS011;62902;48.854;9.292;2022-12-18T04:26:08;24.45;;;9.18;;
74459;SDS011;62902;48.854;9.292;2022-12-18T04:28:43;23.17;;;7.88;;
74459;SDS011;62902;48.854;9.292;2022-12-18T04:31:11;20.17;;;9.23;;
74459;SDS011;62902;48.854;9.292;2022-12-18T04:33:38;20.75;;;8.98;;
74459;SDS011;62902;48.854;9.292;2022-12-18T04:36:06;16.58;;;8.40;;
74459;SDS011;62902;48.854;9.292;2022-12-18T04:38:33;22.15;;;6.88;;
74459;SDS011;62902;48.854;9.292;2022-12-18T04:41:05;26.65;;;8.00;;
74459;SDS011;62902;48.854;9.292;2022-12-18T04:43:33;30.42;;;10.73;;
74459;SDS011;62902;48.854;9.292;2022-12-18T04:46:03;24.25;;;7.90;;
74459;SDS011;62902;48.854;9.292;2022-12-18T04:48:31;25.75;;;9.75;;
74459;SDS011;62902;48.854;9.292;2022-12-18T04:50:58;21.33;;;8.82;;
74459;SDS011;62902;48.854;9.292;2022-12-18T04:53:24;14.70;;;6.75;;
74459;SDS011;62902;48.854;9.292;2022-12-18T04:56:01;21.88;;;9.80;;
74459;SDS011;62902;48.854;9.292;2022-12-18T04:58:29;23.30;;;10.50;;
74459;SDS011;62902;48.854;9.292;2022-12-18T05:00:56;20.13;;;8.35;;
74459;SDS011;62902;48.854;9.292;2022-12-18T05:03:22;22.60;;;8.57;;
74459;SDS011;62902;48.854;9.292;2022-12-18T05:05:49;25.05;;;9.48;;
74459;SDS011;62902;48.854;9.292;2022-12-18T05:08:17;26.85;;;10.10;;
74459;SDS011;62902;48.854;9.292;2022-12-18T05:10:45;26.33;;;9.82;;
74459;SDS011;62902;48.854;9.292;2022-12-18T05:13:11;27.27;;;9.80;;
74459;SDS011;62902;48.854;9.292;2022-12-18T05:15:38;19.48;;;8.75;;
74459;SDS011;62902;48.854;9.292;2022-12-18T05:18:04;27.20;;;8.88;;
74459;SDS011;62902;48.854;9.292;2022-12-18T05:20:31;25.85;;;9.23;;
74459;SDS011;62902;48.854;9.292;2022-12-18T05:22:58;21.08;;;7.90;;
74459;SDS011;62902;48.854;9.292;2022-12-18T05:25:24;26.60;;;9.68;;
74459;SDS011;62902;48.854;9.292;2022-12-18T05:27:51;21.88;;;8.85;;
74459;SDS011;62902;48.854;9.292;2022-12-18T05:30:17;19.50;;;8.60;;
74459;SDS011;62902;48.854;9.292;2022-12-18T05:32:44;22.02;;;9.45;;
74459;SDS011;62902;48.854;9.292;2022-12-18T05:35:10;18.27;;;6.70;;
74459;SDS011;62902;48.854;9.292;2022-12-18T05:37:37;17.67;;;8.38;;
74459;SDS011;62902;48.854;9.292;2022-12-18T05:40:08;19.58;;;7.90;;
74459;SDS011;62902;48.854;9.292;2022-12-18T05:42:36;16.98;;;7.82;;
74459;SDS011;62902;48.854;9.292;2022-12-18T05:45:02;23.08;;;8.60;;
74459;SDS011;62902;48.854;9.292;2022-12-18T05:47:30;10.75;;;4.93;;
74459;SDS011;62902;48.854;9.292;2022-12-18T05:49:56;21.50;;;8.50;;
74459;SDS011;62902;48.854;9.292;2022-12-18T05:52:23;19.38;;;8.40;;
74459;SDS011;62902;48.854;9.292;2022-12-18T05:54:49;25.88;;;9.13;;
74459;SDS011;62902;48.854;9.292;2022-12-18T05:57:16;22.90;;;7.88;;
74459;SDS011;62902;48.854;9.292;2022-12-18T05:59:42;16.55;;;7.28;;
74459;SDS011;62902;48.854;9.292;2022-12-18T06:02:09;19.73;;;6.25;;
74459;SDS011;62902;48.854;9.292;2022-12-18T06:04:36;22.85;;;8.35;;
74459;SDS011;62902;48.854;9.292;2022-12-18T06:07:02;20.27;;;8.60;;
74459;SDS011;62902;48.854;9.292;2022-12-18T06:09:29;17.42;;;6.25;;
74459;SDS011;62902;48.854;9.292;2022-12-18T06:11:55;22.17;;;8.48;;
74459;SDS011;62902;48.854;9.292;2022-12-18T06:14:22;19.75;;;8.32;;
74459;SDS011;62902;48.854;9.292;2022-12-18T06:16:50;16.95;;;6.85;;
74459;SDS011;62902;48.854;9.292;2022-12-18T06:21:44;17.55;;;7.70;;
74459;SDS011;62902;48.854;9.292;2022-12-18T06:24:10;17.98;;;7.50;;
74459;SDS011;62902;48.854;9.292;2022-12-18T06:26:37;19.30;;;7.82;;
74459;SDS011;62902;48.854;9.292;2022-12-18T06:29:05;22.30;;;7.93;;
74459;SDS011;62902;48.854;9.292;2022-12-18T06:31:32;25.23;;;8.52;;
74459;SDS011;62902;48.854;9.292;2022-12-18T06:33:59;32.72;;;8.88;;
74459;SDS011;62902;48.854;9.292;2022-12-18T06:36:29;23.25;;;9.32;;
74459;SDS011;62902;48.854;9.292;2022-12-18T06:38:56;17.58;;;7.47;;
74459;SDS011;62902;48.854;9.292;2022-12-18T06:41:23;25.23;;;8.70;;
74459;SDS011;62902;48.854;9.292;2022-12-18T06:43:50;22.80;;;9.15;;
74459;SDS011;62902;48.854;9.292;2022-12-18T06:46:19;25.83;;;8.80;;
74459;SDS011;62902;48.854;9.292;2022-12-18T06:48:47;18.08;;;7.50;;
74459;SDS011;62902;48.854;9.292;2022-12-18T06:51:15;32.45;;;7.38;;
74459;SDS011;62902;48.854;9.292;2022-12-18T06:53:43;19.88;;;6.00;;
74459;SDS011;62902;48.854;9.292;2022-12-18T06:56:10;15.45;;;5.38;;
74459;SDS011;62902;48.854;9.292;2022-12-18T06:58:37;13.65;;;5.25;;
74459;SDS011;62902;48.854;9.292;2022-12-18T07:01:05;24.42;;;6.45;;
74459;SDS011;62902;48.854;9.292;2022-12-18T07:03:33;14.38;;;6.68;;
74459;SDS011;62902;48.854;9.292;2022-12-18T07:05:59;18.35;;;6.45;;
74459;SDS011;62902;48.854;9.292;2022-12-18T07:08:26;19.17;;;7.72;;
74459;SDS011;62902;48.854;9.292;2022-12-18T07:10:52;21.10;;;8.10;;
74459;SDS011;62902;48.854;9.292;2022-12-18T07:13:21;29.20;;;8.95;;
74459;SDS011;62902;48.854;9.292;2022-12-18T07:15:48;23.10;;;8.90;;
74459;SDS011;62902;48.854;9.292;2022-12-18T07:18:14;21.00;;;8.13;;
74459;SDS011;62902;48.854;9.292;2022-12-18T07:20:41;16.65;;;6.57;;
74459;SDS011;62902;48.854;9.292;2022-12-18T07:23:08;18.60;;;7.20;;
74459;SDS011;62902;48.854;9.292;2022-12-18T07:25:34;24.45;;;8.48;;
74459;SDS011;62902;48.854;9.292;2022-12-18T07:28:01;18.30;;;7.75;;
74459;SDS011;62902;48.854;9.292;2022-12-18T07:30:28;21.75;;;7.43;;
74459;SDS011;62902;48.854;9.292;2022-12-18T07:32:55;25.70;;;8.65;;
74459;SDS011;62902;48.854;9.292;2022-12-18T07:37:50;19.80;;;7.30;;
74459;SDS011;62902;48.854;9.292;2022-12-18T07:40:17;15.55;;;6.15;;
74459;SDS011;62902;48.854;9.292;2022-12-18T07:42:44;21.02;;;8.70;;
74459;SDS011;62902;48.854;9.292;2022-12-18T07:45:10;23.30;;;9.10;;
74459;SDS011;62902;48.854;9.292;2022-12-18T07:47:37;25.02;;;9.30;;
74459;SDS011;62902;48.854;9.292;2022-12-18T07:50:04;20.45;;;8.80;;
74459;SDS011;62902;48.854;9.292;2022-12-18T07:52:31;22.05;;;8.98;;
74459;SDS011;62902;48.854;9.292;2022-12-18T07:54:58;19.88;;;7.70;;
74459;SDS011;62902;48.854;9.292;2022-12-18T07:57:25;27.77;;;10.25;;
74459;SDS011;62902;48.854;9.292;2022-12-18T08:00:11;17.85;;;7.50;;
74459;SDS011;62902;48.854;9.292;2022-12-18T08:02:39;18.90;;;7.80;;
74459;SDS011;62902;48.854;9.292;2022-12-18T08:05:07;27.05;;;10.02;;
74459;SDS011;62902;48.854;9.292;2022-12-18T08:07:34;27.25;;;11.25;;
74459;SDS011;62902;48.854;9.292;2022-12-18T08:10:00;20.35;;;9.80;;
74459;SDS011;62902;48.854;9.292;2022-12-18T08:12:27;32.72;;;11.10;;
74459;SDS011;62902;48.854;9.292;2022-12-18T08:14:53;22.25;;;8.18;;
74459;SDS011;62902;48.854;9.292;2022-12-18T08:17:20;19.20;;;8.15;;
74459;SDS011;62902;48.854;9.292;2022-12-18T08:19:46;20.95;;;7.88;;
74459;SDS011;62902;48.854;9.292;2022-12-18T08:22:13;22.85;;;7.20;;
74459;SDS011;62902;48.854;9.292;2022-12-18T08:24:39;18.38;;;7.90;;
74459;SDS011;62902;48.854;9.292;2022-12-18T08:27:06;26.25;;;8.98;;
74459;SDS011;62902;48.854;9.292;2022-12-18T08:29:52;27.75;;;8.13;;
74459;SDS011;62902;48.854;9.292;2022-12-18T08:32:19;20.27;;;8.75;;
74459;SDS011;62902;48.854;9.292;2022-12-18T08:34:46;21.70;;;8.43;;
74459;SDS011;62902;48.854;9.292;2022-12-18T08:37:12;26.63;;;10.18;;
74459;SDS011;62902;48.854;9.292;2022-12-18T08:39:39;31.55;;;11.13;;
74459;SDS011;62902;48.854;9.292;2022-12-18T08:42:05;27.70;;;11.25;;
74459;SDS011;62902;48.854;9.292;2022-12-18T08:44:50;23.58;;;9.85;;
74459;SDS011;62902;48.854;9.292;2022-12-18T08:47:17;28.30;;;10.27;;
74459;SDS011;62902;48.854;9.292;2022-12-18T08:49:45;33.85;;;10.57;;
74459;SDS011;62902;48.854;9.292;2022-12-18T08:52:15;20.33;;;9.43;;
74459;SDS011;62902;48.854;9.292;2022-12-18T08:54:41;30.38;;;10.52;;
74459;SDS011;62902;48.854;9.292;2022-12-18T08:57:08;25.13;;;9.70;;
74459;SDS011;62902;48.854;9.292;2022-12-18T08:59:35;21.75;;;8.23;;
74459;SDS011;62902;48.854;9.292;2022-12-18T09:02:01;25.98;;;9.73;;
74459;SDS011;62902;48.854;9.292;2022-12-18T09:04:28;25.50;;;10.73;;
74459;SDS011;62902;48.854;9.292;2022-12-18T09:06:54;39.60;;;13.73;;
74459;SDS011;62902;48.854;9.292;2022-12-18T09:09:21;28.08;;;11.32;;
74459;SDS011;62902;48.854;9.292;2022-12-18T09:11:47;33.75;;;11.90;;
74459;SDS011;62902;48.854;9.292;2022-12-18T09:14:14;29.48;;;11.20;;
74459;SDS011;62902;48.854;9.292;2022-12-18T09:16:40;24.48;;;9.57;;
74459;SDS011;62902;48.854;9.292;2022-12-18T09:19:08;26.38;;;9.05;;
74459;SDS011;62902;48.854;9.292;2022-12-18T09:21:35;29.42;;;12.43;;
74459;SDS011;62902;48.854;9.292;2022-12-18T09:24:12;20.27;;;9.88;;
74459;SDS011;62902;48.854;9.292;2022-12-18T09:26:39;21.48;;;7.70;;
74459;SDS011;62902;48.854;9.292;2022-12-18T09:29:08;17.73;;;8.80;;
74459;SDS011;62902;48.854;9.292;2022-12-18T09:31:35;29.73;;;10.73;;
74459;SDS011;62902;48.854;9.292;2022-12-18T09:34:02;22.88;;;9.70;;
74459;SDS011;62902;48.854;9.292;2022-12-18T09:36:29;25.58;;;9.18;;
74459;SDS011;62902;48.854;9.292;2022-12-18T09:38:56;27.27;;;11.35;;
74459;SDS011;62902;48.854;9.292;2022-12-18T09:47:25;29.50;;;11.40;;
74459;SDS011;62902;48.854;9.292;2022-12-18T09:49:35;32.53;;;11.13;;
74459;SDS011;62902;48.854;9.292;2022-12-18T09:54:38;31.35;;;11.35;;
74459;SDS011;62902;48.854;9.292;2022-12-18T09:57:06;35.13;;;11.30;;
74459;SDS011;62902;48.854;9.292;2022-12-18T09:59:39;41.47;;;12.45;;
74459;SDS011;62902;48.854;9.292;2022-12-18T10:02:14;33.85;;;11.88;;
74459;SDS011;62902;48.854;9.292;2022-12-18T10:04:42;30.98;;;11.00;;
74459;SDS011;62902;48.854;9.292;2022-12-18T10:07:24;33.63;;;12.63;;
74459;SDS011;62902;48.854;9.292;2022-12-18T10:15:36;31.92;;;12.68;;
74459;SDS011;62902;48.854;9.292;2022-12-18T10:18:19;36.63;;;13.88;;
74459;SDS011;62902;48.854;9.292;2022-12-18T10:21:15;40.83;;;14.45;;
74459;SDS011;62902;48.854;9.292;2022-12-18T10:23:49;32.83;;;12.35;;
74459;SDS011;62902;48.854;9.292;2022-12-18T10:26:21;36.72;;;13.63;;
74459;SDS011;62902;48.854;9.292;2022-12-18T10:28:47;45.05;;;14.43;;
74459;SDS011;62902;48.854;9.292;2022-12-18T10:31:20;31.90;;;11.52;;
74459;SDS011;62902;48.854;9.292;2022-12-18T10:33:50;35.80;;;13.35;;
74459;SDS011;62902;48.854;9.292;2022-12-18T10:36:17;38.28;;;14.25;;
74459;SDS011;62902;48.854;9.292;2022-12-18T10:38:43;26.13;;;10.38;;
74459;SDS011;62902;48.854;9.292;2022-12-18T10:43:48;31.42;;;11.73;;
74459;SDS011;62902;48.854;9.292;2022-12-18T10:46:16;41.22;;;13.45;;
74459;SDS011;62902;48.854;9.292;2022-12-18T10:54:00;42.40;;;13.50;;
74459;SDS011;62902;48.854;9.292;2022-12-18T10:56:30;30.38;;;12.35;;
74459;SDS011;62902;48.854;9.292;2022-12-18T10:59:07;37.42;;;14.77;;
74459;SDS011;62902;48.854;9.292;2022-12-18T11:02:23;30.75;;;11.20;;
74459;SDS011;62902;48.854;9.292;2022-12-18T11:09:22;38.97;;;14.57;;
74459;SDS011;62902;48.854;9.292;2022-12-18T11:11:54;36.90;;;13.70;;
74459;SDS011;62902;48.854;9.292;2022-12-18T11:14:26;36.17;;;13.82;;
74459;SDS011;62902;48.854;9.292;2022-12-18T11:16:55;43.78;;;14.45;;
74459;SDS011;62902;48.854;9.292;2022-12-18T11:19:42;36.78;;;16.10;;
74459;SDS011;62902;48.854;9.292;2022-12-18T11:22:23;34.80;;;12.13;;
74459;SDS011;62902;48.854;9.292;2022-12-18T11:25:01;39.10;;;12.23;;
74459;SDS011;62902;48.854;9.292;2022-12-18T11:30:31;25.35;;;9.48;;
74459;SDS011;62902;48.854;9.292;2022-12-18T11:35:48;29.77;;;11.77;;
74459;SDS011;62902;48.854;9.292;2022-12-18T11:41:00;27.25;;;11.13;;
74459;SDS011;62902;48.854;9.292;2022-12-18T11:43:35;33.20;;;12.23;;
74459;SDS011;62902;48.854;9.292;2022-12-18T11:46:06;38.92;;;11.60;;
74459;SDS011;62902;48.854;9.292;2022-12-18T11:48:44;29.30;;;11.98;;
74459;SDS011;62902;48.854;9.292;2022-12-18T11:51:14;32.17;;;10.70;;
74459;SDS011;62902;48.854;9.292;2022-12-18T11:53:53;32.22;;;10.07;;
74459;SDS011;62902;48.854;9.292;2022-12-18T12:04:20;30.02;;;10.93;;
74459;SDS011;62902;48.854;9.292;2022-12-18T12:15:33;24.77;;;10.38;;
74459;SDS011;62902;48.854;9.292;2022-12-18T12:37:47;31.70;;;13.10;;
74459;SDS011;62902;48.854;9.292;2022-12-18T12:40:31;27.40;;;10.05;;
74459;SDS011;62902;48.854;9.292;2022-12-18T12:44:06;26.10;;;10.80;;
74459;SDS011;62902;48.854;9.292;2022-12-18T12:46:17;27.40;;;11.23;;
74459;SDS011;62902;48.854;9.292;2022-12-18T12:48:49;33.78;;;12.40;;
74459;SDS011;62902;48.854;9.292;2022-12-18T12:53:51;30.25;;;11.40;;
74459;SDS011;62902;48.854;9.292;2022-12-18T12:56:19;27.75;;;11.07;;
74459;SDS011;62902;48.854;9.292;2022-12-18T13:04:29;36.25;;;12.23;;
74459;SDS011;62902;48.854;9.292;2022-12-18T13:07:24;27.08;;;11.75;;
74459;SDS011;62902;48.854;9.292;2022-12-18T13:15:37;26.25;;;10.82;;
74459;SDS011;62902;48.854;9.292;2022-12-18T13:20:47;32.00;;;12.40;;
74459;SDS011;62902;48.854;9.292;2022-12-18T13:33:42;30.02;;;10.98;;
74459;SDS011;62902;48.854;9.292;2022-12-18T13:36:30;29.73;;;11.35;;
74459;SDS011;62902;48.854;9.292;2022-12-18T13:41:51;30.50;;;10.15;;
74459;SDS011;62902;48.854;9.292;2022-12-18T13:44:28;38.78;;;12.82;;
74459;SDS011;62902;48.854;9.292;2022-12-18T13:47:24;29.58;;;11.10;;
74459;SDS011;62902;48.854;9.292;2022-12-18T13:49:53;32.60;;;11.80;;
74459;SDS011;62902;48.854;9.292;2022-12-18T13:52:33;29.98;;;10.48;;
74459;SDS011;62902;48.854;9.292;2022-12-18T13:55:02;31.95;;;12.38;;
74459;SDS011;62902;48.854;9.292;2022-12-18T13:57:35;35.25;;;12.35;;
74459;SDS011;62902;48.854;9.292;2022-12-18T14:02:46;31.30;;;11.30;;
74459;SDS011;62902;48.854;9.292;2022-12-18T14:07:53;36.58;;;12.75;;
74459;SDS011;62902;48.854;9.292;2022-12-18T14:13:08;33.88;;;11.07;;
74459;SDS011;62902;48.854;9.292;2022-12-18T14:15:43;28.00;;;11.20;;
74459;SDS011;62902;48.854;9.292;2022-12-18T14:21:02;31.27;;;12.23;;
74459;SDS011;62902;48.854;9.292;2022-12-18T14:23:33;28.65;;;10.80;;
74459;SDS011;62902;48.854;9.292;2022-12-18T14:26:03;30.25;;;10.88;;
74459;SDS011;62902;48.854;9.292;2022-12-18T14:28:50;31.10;;;10.95;;
74459;SDS011;62902;48.854;9.292;2022-12-18T14:31:24;34.88;;;11.13;;
74459;SDS011;62902;48.854;9.292;2022-12-18T14:33:51;26.40;;;10.45;;
74459;SDS011;62902;48.854;9.292;2022-12-18T14:36:26;33.55;;;12.10;;
74459;SDS011;62902;48.854;9.292;2022-12-18T14:38:54;35.60;;;12.52;;
74459;SDS011;62902;48.854;9.292;2022-12-18T14:41:25;34.15;;;12.85;;
74459;SDS011;62902;48.854;9.292;2022-12-18T14:43:52;40.03;;;13.82;;
74459;SDS011;62902;48.854;9.292;2022-12-18T14:49:02;37.05;;;12.10;;
74459;SDS011;62902;48.854;9.292;2022-12-18T14:51:31;34.15;;;12.00;;
74459;SDS011;62902;48.854;9.292;2022-12-18T14:56:31;32.67;;;11.35;;
74459;SDS011;62902;48.854;9.292;2022-12-18T14:59:05;28.65;;;11.00;;
74459;SDS011;62902;48.854;9.292;2022-12-18T15:04:32;28.98;;;10.55;;
74459;SDS011;62902;48.854;9.292;2022-12-18T15:07:02;30.30;;;11.52;;
74459;SDS011;62902;48.854;9.292;2022-12-18T15:09:41;30.73;;;11.27;;
74459;SDS011;62902;48.854;9.292;2022-12-18T15:12:31;28.08;;;11.68;;
74459;SDS011;62902;48.854;9.292;2022-12-18T15:15:04;37.97;;;12.70;;
74459;SDS011;62902;48.854;9.292;2022-12-18T15:17:31;29.45;;;11.55;;
74459;SDS011;62902;48.854;9.292;2022-12-18T15:20:02;31.85;;;12.25;;
74459;SDS011;62902;48.854;9.292;2022-12-18T15:22:35;32.35;;;12.25;;
74459;SDS011;62902;48.854;9.292;2022-12-18T15:25:03;32.17;;;11.43;;
74459;SDS011;62902;48.854;9.292;2022-12-18T15:27:46;37.88;;;11.80;;
74459;SDS011;62902;48.854;9.292;2022-12-18T15:30:17;27.85;;;11.05;;
74459;SDS011;62902;48.854;9.292;2022-12-18T15:32:45;30.98;;;11.02;;
74459;SDS011;62902;48.854;9.292;2022-12-18T15:35:14;27.55;;;11.15;;
74459;SDS011;62902;48.854;9.292;2022-12-18T15:37:42;28.60;;;11.02;;
74459;SDS011;62902;48.854;9.292;2022-12-18T15:40:19;28.75;;;11.05;;
74459;SDS011;62902;48.854;9.292;2022-12-18T15:42:51;34.15;;;11.60;;
74459;SDS011;62902;48.854;9.292;2022-12-18T15:45:38;31.02;;;12.45;;
74459;SDS011;62902;48.854;9.292;2022-12-18T15:48:19;32.30;;;12.15;;
74459;SDS011;62902;48.854;9.292;2022-12-18T15:50:47;33.42;;;11.43;;
74459;SDS011;62902;48.854;9.292;2022-12-18T15:53:16;37.53;;;13.57;;
74459;SDS011;62902;48.854;9.292;2022-12-18T15:55:42;29.45;;;11.23;;
74459;SDS011;62902;48.854;9.292;2022-12-18T15:58:35;29.85;;;11.50;;
74459;SDS011;62902;48.854;9.292;2022-12-18T16:01:02;34.08;;;11.60;;
74459;SDS011;62902;48.854;9.292;2022-12-18T16:03:30;32.60;;;11.60;;
74459;SDS011;62902;48.854;9.292;2022-12-18T16:05:56;32.50;;;11.82;;
74459;SDS011;62902;48.854;9.292;2022-12-18T16:10:51;29.45;;;10.60;;
74459;SDS011;62902;48.854;9.292;2022-12-18T16:13:18;28.75;;;12.18;;
74459;SDS011;62902;48.854;9.292;2022-12-18T16:15:45;28.35;;;11.43;;
74459;SDS011;62902;48.854;9.292;2022-12-18T16:18:12;35.15;;;12.93;;
74459;SDS011;62902;48.854;9.292;2022-12-18T16:20:38;29.88;;;11.40;;
74459;SDS011;62902;48.854;9.292;2022-12-18T16:23:05;35.50;;;11.82;;
74459;SDS011;62902;48.854;9.292;2022-12-18T16:25:32;38.30;;;12.00;;
74459;SDS011;62902;48.854;9.292;2022-12-18T16:27:58;29.40;;;10.48;;
74459;SDS011;62902;48.854;9.292;2022-12-18T16:30:26;33.65;;;12.52;;
74459;SDS011;62902;48.854;9.292;2022-12-18T16:33:03;26.92;;;10.52;;
74459;SDS011;62902;48.854;9.292;2022-12-18T16:35:30;33.15;;;11.40;;
74459;SDS011;62902;48.854;9.292;2022-12-18T16:37:57;27.33;;;11.50;;
74459;SDS011;62902;48.854;9.292;2022-12-18T16:40:23;27.17;;;11.13;;
74459;SDS011;62902;48.854;9.292;2022-12-18T16:42:50;30.73;;;11.10;;
74459;SDS011;62902;48.854;9.292;2022-12-18T16:45:26;19.02;;;7.65;;
74459;SDS011;62902;48.854;9.292;2022-12-18T16:47:52;30.35;;;11.27;;
74459;SDS011;62902;48.854;9.292;2022-12-18T16:50:19;32.35;;;12.07;;
74459;SDS011;62902;48.854;9.292;2022-12-18T16:52:45;28.40;;;11.50;;
74459;SDS011;62902;48.854;9.292;2022-12-18T16:55:12;24.17;;;9.55;;
74459;SDS011;62902;48.854;9.292;2022-12-18T16:57:38;30.70;;;12.27;;
74459;SDS011;62902;48.854;9.292;2022-12-18T17:00:05;29.42;;;10.65;;
74459;SDS011;62902;48.854;9.292;2022-12-18T17:02:32;22.52;;;9.73;;
74459;SDS011;62902;48.854;9.292;2022-12-18T17:04:59;33.97;;;11.80;;
74459;SDS011;62902;48.854;9.292;2022-12-18T17:07:26;27.15;;;10.38;;
74459;SDS011;62902;48.854;9.292;2022-12-18T17:09:53;30.70;;;10.88;;
74459;SDS011;62902;48.854;9.292;2022-12-18T17:12:20;29.63;;;11.77;;
74459;SDS011;62902;48.854;9.292;2022-12-18T17:14:46;30.73;;;11.65;;
74459;SDS011;62902;48.854;9.292;2022-12-18T17:17:14;35.05;;;12.40;;
74459;SDS011;62902;48.854;9.292;2022-12-18T17:19:49;33.13;;;10.85;;
74459;SDS011;62902;48.854;9.292;2022-12-18T17:22:16;30.38;;;11.27;;
74459;SDS011;62902;48.854;9.292;2022-12-18T17:24:43;26.52;;;11.27;;
74459;SDS011;62902;48.854;9.292;2022-12-18T17:27:09;27.38;;;11.55;;
74459;SDS011;62902;48.854;9.292;2022-12-18T17:29:36;32.78;;;10.65;;